sensor_id;sensor_type;location;lat;lon;timestamp;temperature;humidity
32173;DHT22;18679;45.190;5.722;2023-01-08T00:00:17;17.10;37.40
32173;DHT22;18679;45.190;5.722;2023-01-08T00:03:18;16.90;38.00
32173;DHT22;18679;45.190;5.722;2023-01-08T00:06:19;16.70;38.40
32173;DHT22;18679;45.190;5.722;2023-01-08T00:09:21;16.50;39.20
32173;DHT22;18679;45.190;5.722;2023-01-08T00:12:22;16.20;39.90
32173;DHT22;18679;45.190;5.722;2023-01-08T00:15:23;15.90;40.20
32173;DHT22;18679;45.190;5.722;2023-01-08T00:18:24;15.70;40.70
32173;DHT22;18679;45.190;5.722;2023-01-08T00:21:27;15.50;41.30
32173;DHT22;18679;45.190;5.722;2023-01-08T00:24:28;15.30;41.80
32173;DHT22;18679;45.190;5.722;2023-01-08T00:27:29;15.10;42.30
32173;DHT22;18679;45.190;5.722;2023-01-08T00:30:30;14.90;42.70
32173;DHT22;18679;45.190;5.722;2023-01-08T00:33:31;14.70;43.30
32173;DHT22;18679;45.190;5.722;2023-01-08T00:36:32;14.50;43.90
32173;DHT22;18679;45.190;5.722;2023-01-08T00:39:33;14.30;44.40
32173;DHT22;18679;45.190;5.722;2023-01-08T00:42:33;14.20;44.50
32173;DHT22;18679;45.190;5.722;2023-01-08T00:45:34;14.10;44.90
32173;DHT22;18679;45.190;5.722;2023-01-08T00:48:35;14.00;45.30
32173;DHT22;18679;45.190;5.722;2023-01-08T00:51:38;13.90;45.60
32173;DHT22;18679;45.190;5.722;2023-01-08T00:54:38;13.80;46.10
32173;DHT22;18679;45.190;5.722;2023-01-08T00:57:39;13.60;46.10
32173;DHT22;18679;45.190;5.722;2023-01-08T01:00:40;13.60;46.20
32173;DHT22;18679;45.190;5.722;2023-01-08T01:03:42;13.60;46.20
32173;DHT22;18679;45.190;5.722;2023-01-08T01:06:43;13.60;46.20
32173;DHT22;18679;45.190;5.722;2023-01-08T01:09:44;13.70;46.20
32173;DHT22;18679;45.190;5.722;2023-01-08T01:12:45;13.70;46.10
32173;DHT22;18679;45.190;5.722;2023-01-08T01:15:55;13.80;46.00
32173;DHT22;18679;45.190;5.722;2023-01-08T01:18:55;13.90;45.90
32173;DHT22;18679;45.190;5.722;2023-01-08T01:21:57;13.90;45.70
32173;DHT22;18679;45.190;5.722;2023-01-08T01:24:59;14.00;45.50
32173;DHT22;18679;45.190;5.722;2023-01-08T01:28:00;14.10;45.20
32173;DHT22;18679;45.190;5.722;2023-01-08T01:31:00;14.30;45.10
32173;DHT22;18679;45.190;5.722;2023-01-08T01:34:03;14.40;44.90
32173;DHT22;18679;45.190;5.722;2023-01-08T01:37:04;14.40;44.80
32173;DHT22;18679;45.190;5.722;2023-01-08T01:40:07;14.50;44.70
32173;DHT22;18679;45.190;5.722;2023-01-08T01:43:14;14.50;44.70
32173;DHT22;18679;45.190;5.722;2023-01-08T01:49:26;14.60;43.90
32173;DHT22;18679;45.190;5.722;2023-01-08T01:52:30;14.90;42.70
32173;DHT22;18679;45.190;5.722;2023-01-08T01:55:33;15.40;41.50
32173;DHT22;18679;45.190;5.722;2023-01-08T01:58:35;15.80;40.30
32173;DHT22;18679;45.190;5.722;2023-01-08T02:01:37;16.20;39.60
32173;DHT22;18679;45.190;5.722;2023-01-08T02:04:38;16.50;38.70
32173;DHT22;18679;45.190;5.722;2023-01-08T02:07:49;16.80;38.40
32173;DHT22;18679;45.190;5.722;2023-01-08T02:24:12;17.70;35.30
32173;DHT22;18679;45.190;5.722;2023-01-08T02:27:16;17.80;35.60
32173;DHT22;18679;45.190;5.722;2023-01-08T02:30:19;17.90;35.20
32173;DHT22;18679;45.190;5.722;2023-01-08T02:33:22;18.00;35.20
32173;DHT22;18679;45.190;5.722;2023-01-08T02:36:27;18.10;35.30
32173;DHT22;18679;45.190;5.722;2023-01-08T02:46:31;17.60;36.90
32173;DHT22;18679;45.190;5.722;2023-01-08T02:49:36;17.20;37.70
32173;DHT22;18679;45.190;5.722;2023-01-08T02:52:48;16.80;38.40
32173;DHT22;18679;45.190;5.722;2023-01-08T02:55:53;16.50;39.30
32173;DHT22;18679;45.190;5.722;2023-01-08T02:58:55;16.10;40.00
32173;DHT22;18679;45.190;5.722;2023-01-08T03:01:59;15.80;40.90
32173;DHT22;18679;45.190;5.722;2023-01-08T03:05:08;15.50;41.40
32173;DHT22;18679;45.190;5.722;2023-01-08T03:08:11;15.20;42.10
32173;DHT22;18679;45.190;5.722;2023-01-08T03:11:14;15.10;42.30
32173;DHT22;18679;45.190;5.722;2023-01-08T03:14:27;14.90;42.70
32173;DHT22;18679;45.190;5.722;2023-01-08T03:17:32;14.80;42.90
32173;DHT22;18679;45.190;5.722;2023-01-08T03:20:36;14.60;43.30
32173;DHT22;18679;45.190;5.722;2023-01-08T03:23:38;14.50;43.70
32173;DHT22;18679;45.190;5.722;2023-01-08T03:26:41;14.30;44.30
32173;DHT22;18679;45.190;5.722;2023-01-08T03:29:46;14.10;44.50
32173;DHT22;18679;45.190;5.722;2023-01-08T03:32:50;14.10;44.80
32173;DHT22;18679;45.190;5.722;2023-01-08T03:35:54;14.00;44.90
32173;DHT22;18679;45.190;5.722;2023-01-08T03:39:27;14.10;44.90
32173;DHT22;18679;45.190;5.722;2023-01-08T03:42:26;14.10;44.80
32173;DHT22;18679;45.190;5.722;2023-01-08T03:45:29;14.10;44.70
32173;DHT22;18679;45.190;5.722;2023-01-08T03:48:32;14.20;44.70
32173;DHT22;18679;45.190;5.722;2023-01-08T03:51:44;14.20;44.80
32173;DHT22;18679;45.190;5.722;2023-01-08T03:54:45;14.20;44.90
32173;DHT22;18679;45.190;5.722;2023-01-08T03:57:46;14.20;45.20
32173;DHT22;18679;45.190;5.722;2023-01-08T04:00:47;14.10;45.10
32173;DHT22;18679;45.190;5.722;2023-01-08T04:03:47;14.10;45.10
32173;DHT22;18679;45.190;5.722;2023-01-08T04:06:50;14.20;45.30
32173;DHT22;18679;45.190;5.722;2023-01-08T04:09:51;14.20;45.30
32173;DHT22;18679;45.190;5.722;2023-01-08T04:12:52;14.10;45.40
32173;DHT22;18679;45.190;5.722;2023-01-08T04:15:53;14.10;45.40
32173;DHT22;18679;45.190;5.722;2023-01-08T04:18:53;14.10;45.50
32173;DHT22;18679;45.190;5.722;2023-01-08T04:21:54;14.10;45.60
32173;DHT22;18679;45.190;5.722;2023-01-08T04:24:55;14.00;45.70
32173;DHT22;18679;45.190;5.722;2023-01-08T04:27:56;14.00;45.80
32173;DHT22;18679;45.190;5.722;2023-01-08T04:30:57;14.00;46.00
32173;DHT22;18679;45.190;5.722;2023-01-08T04:33:57;14.00;45.90
32173;DHT22;18679;45.190;5.722;2023-01-08T04:36:58;14.20;45.90
32173;DHT22;18679;45.190;5.722;2023-01-08T04:39:59;14.30;45.70
32173;DHT22;18679;45.190;5.722;2023-01-08T04:43:00;14.40;45.50
32173;DHT22;18679;45.190;5.722;2023-01-08T04:46:03;14.50;45.40
32173;DHT22;18679;45.190;5.722;2023-01-08T04:49:04;14.50;45.30
32173;DHT22;18679;45.190;5.722;2023-01-08T04:52:04;14.50;45.30
32173;DHT22;18679;45.190;5.722;2023-01-08T04:55:06;14.40;45.40
32173;DHT22;18679;45.190;5.722;2023-01-08T04:58:07;14.40;45.40
32173;DHT22;18679;45.190;5.722;2023-01-08T05:01:09;14.50;45.50
32173;DHT22;18679;45.190;5.722;2023-01-08T05:04:11;14.50;45.60
32173;DHT22;18679;45.190;5.722;2023-01-08T05:07:12;14.50;45.60
32173;DHT22;18679;45.190;5.722;2023-01-08T05:14:35;14.60;45.60
32173;DHT22;18679;45.190;5.722;2023-01-08T05:17:35;14.50;45.50
32173;DHT22;18679;45.190;5.722;2023-01-08T05:20:36;14.50;45.60
32173;DHT22;18679;45.190;5.722;2023-01-08T05:23:37;14.30;45.80
32173;DHT22;18679;45.190;5.722;2023-01-08T05:26:38;14.30;46.10
32173;DHT22;18679;45.190;5.722;2023-01-08T05:29:39;14.20;46.20
32173;DHT22;18679;45.190;5.722;2023-01-08T05:32:39;14.10;46.40
32173;DHT22;18679;45.190;5.722;2023-01-08T05:35:40;14.00;46.40
32173;DHT22;18679;45.190;5.722;2023-01-08T05:38:41;13.90;46.60
32173;DHT22;18679;45.190;5.722;2023-01-08T05:41:42;13.90;46.80
32173;DHT22;18679;45.190;5.722;2023-01-08T05:44:43;13.90;46.80
32173;DHT22;18679;45.190;5.722;2023-01-08T05:47:44;13.90;46.80
32173;DHT22;18679;45.190;5.722;2023-01-08T05:50:48;14.00;46.90
32173;DHT22;18679;45.190;5.722;2023-01-08T05:53:48;14.00;46.80
32173;DHT22;18679;45.190;5.722;2023-01-08T05:56:49;14.00;46.80
32173;DHT22;18679;45.190;5.722;2023-01-08T05:59:50;14.10;46.70
32173;DHT22;18679;45.190;5.722;2023-01-08T06:02:51;14.20;46.60
32173;DHT22;18679;45.190;5.722;2023-01-08T06:05:52;14.30;46.50
32173;DHT22;18679;45.190;5.722;2023-01-08T06:08:53;14.30;46.50
32173;DHT22;18679;45.190;5.722;2023-01-08T06:11:54;14.50;46.60
32173;DHT22;18679;45.190;5.722;2023-01-08T06:14:57;14.80;46.40
32173;DHT22;18679;45.190;5.722;2023-01-08T06:18:01;15.20;46.00
32173;DHT22;18679;45.190;5.722;2023-01-08T06:21:03;15.40;45.40
32173;DHT22;18679;45.190;5.722;2023-01-08T06:24:04;15.60;45.10
32173;DHT22;18679;45.190;5.722;2023-01-08T06:27:06;15.80;45.00
32173;DHT22;18679;45.190;5.722;2023-01-08T06:30:08;16.00;44.80
32173;DHT22;18679;45.190;5.722;2023-01-08T06:33:09;16.30;44.60
32173;DHT22;18679;45.190;5.722;2023-01-08T06:36:10;16.50;44.70
32173;DHT22;18679;45.190;5.722;2023-01-08T06:39:11;16.50;45.40
32173;DHT22;18679;45.190;5.722;2023-01-08T06:42:12;16.50;45.90
32173;DHT22;18679;45.190;5.722;2023-01-08T06:45:13;16.40;46.30
32173;DHT22;18679;45.190;5.722;2023-01-08T06:48:15;16.40;46.80
32173;DHT22;18679;45.190;5.722;2023-01-08T06:51:16;16.30;47.20
32173;DHT22;18679;45.190;5.722;2023-01-08T06:54:16;16.30;46.80
32173;DHT22;18679;45.190;5.722;2023-01-08T06:57:19;16.20;45.70
32173;DHT22;18679;45.190;5.722;2023-01-08T07:00:19;16.00;45.10
32173;DHT22;18679;45.190;5.722;2023-01-08T07:03:21;15.80;44.70
32173;DHT22;18679;45.190;5.722;2023-01-08T07:06:23;15.40;44.70
32173;DHT22;18679;45.190;5.722;2023-01-08T07:09:24;15.30;44.80
32173;DHT22;18679;45.190;5.722;2023-01-08T07:12:25;15.10;45.10
32173;DHT22;18679;45.190;5.722;2023-01-08T07:15:26;14.90;45.20
32173;DHT22;18679;45.190;5.722;2023-01-08T07:18:27;14.70;45.60
32173;DHT22;18679;45.190;5.722;2023-01-08T07:21:27;14.50;45.90
32173;DHT22;18679;45.190;5.722;2023-01-08T07:24:28;14.30;46.60
32173;DHT22;18679;45.190;5.722;2023-01-08T07:27:29;14.10;47.40
32173;DHT22;18679;45.190;5.722;2023-01-08T07:30:31;13.90;48.10
32173;DHT22;18679;45.190;5.722;2023-01-08T07:33:32;13.90;48.60
32173;DHT22;18679;45.190;5.722;2023-01-08T07:36:33;13.70;48.80
32173;DHT22;18679;45.190;5.722;2023-01-08T07:39:34;13.60;49.30
32173;DHT22;18679;45.190;5.722;2023-01-08T07:42:35;13.50;49.70
32173;DHT22;18679;45.190;5.722;2023-01-08T07:45:35;13.50;50.20
32173;DHT22;18679;45.190;5.722;2023-01-08T07:48:36;13.40;50.40
32173;DHT22;18679;45.190;5.722;2023-01-08T07:51:37;13.30;50.60
32173;DHT22;18679;45.190;5.722;2023-01-08T07:54:38;13.30;50.50
32173;DHT22;18679;45.190;5.722;2023-01-08T07:57:39;13.30;50.90
32173;DHT22;18679;45.190;5.722;2023-01-08T08:00:40;13.20;51.30
32173;DHT22;18679;45.190;5.722;2023-01-08T08:03:40;13.20;51.80
32173;DHT22;18679;45.190;5.722;2023-01-08T08:06:41;13.10;51.90
32173;DHT22;18679;45.190;5.722;2023-01-08T08:09:42;13.10;51.90
32173;DHT22;18679;45.190;5.722;2023-01-08T08:12:44;13.10;52.00
32173;DHT22;18679;45.190;5.722;2023-01-08T08:15:45;13.10;52.30
32173;DHT22;18679;45.190;5.722;2023-01-08T08:18:45;13.20;52.40
32173;DHT22;18679;45.190;5.722;2023-01-08T08:21:46;13.20;52.40
32173;DHT22;18679;45.190;5.722;2023-01-08T08:24:47;13.20;52.90
32173;DHT22;18679;45.190;5.722;2023-01-08T08:27:48;13.10;53.20
32173;DHT22;18679;45.190;5.722;2023-01-08T08:30:50;13.00;53.40
32173;DHT22;18679;45.190;5.722;2023-01-08T08:33:51;13.00;54.20
32173;DHT22;18679;45.190;5.722;2023-01-08T08:36:52;13.00;54.00
32173;DHT22;18679;45.190;5.722;2023-01-08T08:39:52;13.00;54.20
32173;DHT22;18679;45.190;5.722;2023-01-08T08:43:02;12.90;54.20
32173;DHT22;18679;45.190;5.722;2023-01-08T08:46:03;13.00;54.40
32173;DHT22;18679;45.190;5.722;2023-01-08T08:49:04;13.00;54.60
32173;DHT22;18679;45.190;5.722;2023-01-08T08:52:05;13.00;54.80
32173;DHT22;18679;45.190;5.722;2023-01-08T08:55:06;13.00;54.80
32173;DHT22;18679;45.190;5.722;2023-01-08T08:58:10;13.00;55.00
32173;DHT22;18679;45.190;5.722;2023-01-08T09:01:11;13.00;55.20
32173;DHT22;18679;45.190;5.722;2023-01-08T09:04:12;13.00;55.40
32173;DHT22;18679;45.190;5.722;2023-01-08T09:07:12;13.00;55.90
32173;DHT22;18679;45.190;5.722;2023-01-08T09:10:13;13.00;56.30
32173;DHT22;18679;45.190;5.722;2023-01-08T09:13:14;13.00;56.50
32173;DHT22;18679;45.190;5.722;2023-01-08T09:16:15;13.10;56.50
32173;DHT22;18679;45.190;5.722;2023-01-08T09:19:16;13.10;56.50
32173;DHT22;18679;45.190;5.722;2023-01-08T09:22:17;13.00;56.30
32173;DHT22;18679;45.190;5.722;2023-01-08T09:25:18;13.00;56.40
32173;DHT22;18679;45.190;5.722;2023-01-08T09:28:19;12.90;56.70
32173;DHT22;18679;45.190;5.722;2023-01-08T09:31:20;12.80;56.80
32173;DHT22;18679;45.190;5.722;2023-01-08T09:34:21;12.80;57.00
32173;DHT22;18679;45.190;5.722;2023-01-08T09:37:22;12.80;57.20
32173;DHT22;18679;45.190;5.722;2023-01-08T09:40:27;12.80;57.40
32173;DHT22;18679;45.190;5.722;2023-01-08T09:43:30;12.80;57.40
32173;DHT22;18679;45.190;5.722;2023-01-08T09:46:33;12.80;57.40
32173;DHT22;18679;45.190;5.722;2023-01-08T09:49:40;12.80;57.40
32173;DHT22;18679;45.190;5.722;2023-01-08T09:52:42;12.80;57.40
32173;DHT22;18679;45.190;5.722;2023-01-08T09:55:44;12.80;57.50
32173;DHT22;18679;45.190;5.722;2023-01-08T09:58:49;12.70;57.60
32173;DHT22;18679;45.190;5.722;2023-01-08T10:01:51;12.70;57.90
32173;DHT22;18679;45.190;5.722;2023-01-08T10:04:57;12.70;58.20
32173;DHT22;18679;45.190;5.722;2023-01-08T10:07:59;12.60;58.40
32173;DHT22;18679;45.190;5.722;2023-01-08T10:11:01;12.50;58.70
32173;DHT22;18679;45.190;5.722;2023-01-08T10:14:02;12.50;59.00
32173;DHT22;18679;45.190;5.722;2023-01-08T10:20:20;12.60;59.30
32173;DHT22;18679;45.190;5.722;2023-01-08T10:23:21;12.60;59.50
32173;DHT22;18679;45.190;5.722;2023-01-08T10:26:31;12.60;60.10
32173;DHT22;18679;45.190;5.722;2023-01-08T10:29:32;12.60;60.40
32173;DHT22;18679;45.190;5.722;2023-01-08T10:32:33;12.60;60.30
32173;DHT22;18679;45.190;5.722;2023-01-08T10:35:38;12.70;60.10
32173;DHT22;18679;45.190;5.722;2023-01-08T10:38:58;12.80;60.00
32173;DHT22;18679;45.190;5.722;2023-01-08T10:42:04;12.80;59.90
32173;DHT22;18679;45.190;5.722;2023-01-08T10:45:19;12.80;59.80
32173;DHT22;18679;45.190;5.722;2023-01-08T10:48:22;12.90;59.70
32173;DHT22;18679;45.190;5.722;2023-01-08T10:51:27;13.00;59.50
32173;DHT22;18679;45.190;5.722;2023-01-08T10:54:37;13.10;59.20
32173;DHT22;18679;45.190;5.722;2023-01-08T10:57:59;13.10;58.90
32173;DHT22;18679;45.190;5.722;2023-01-08T11:01:44;13.00;58.90
32173;DHT22;18679;45.190;5.722;2023-01-08T11:04:38;13.00;58.90
32173;DHT22;18679;45.190;5.722;2023-01-08T11:07:39;13.10;59.10
32173;DHT22;18679;45.190;5.722;2023-01-08T11:10:40;13.00;59.20
32173;DHT22;18679;45.190;5.722;2023-01-08T11:13:58;13.00;59.50
32173;DHT22;18679;45.190;5.722;2023-01-08T11:16:59;13.00;60.00
32173;DHT22;18679;45.190;5.722;2023-01-08T11:20:07;12.90;60.10
32173;DHT22;18679;45.190;5.722;2023-01-08T11:26:21;13.00;60.50
32173;DHT22;18679;45.190;5.722;2023-01-08T11:33:37;13.10;61.40
32173;DHT22;18679;45.190;5.722;2023-01-08T11:36:31;13.20;60.90
32173;DHT22;18679;45.190;5.722;2023-01-08T11:39:34;13.20;61.00
32173;DHT22;18679;45.190;5.722;2023-01-08T11:42:53;13.20;60.90
32173;DHT22;18679;45.190;5.722;2023-01-08T11:58:43;13.30;61.20
32173;DHT22;18679;45.190;5.722;2023-01-08T12:05:02;13.30;60.90
32173;DHT22;18679;45.190;5.722;2023-01-08T12:11:41;13.30;61.20
32173;DHT22;18679;45.190;5.722;2023-01-08T12:28:38;13.20;61.90
32173;DHT22;18679;45.190;5.722;2023-01-08T12:32:22;13.30;62.10
32173;DHT22;18679;45.190;5.722;2023-01-08T12:35:27;13.30;62.20
32173;DHT22;18679;45.190;5.722;2023-01-08T12:38:42;13.40;62.20
32173;DHT22;18679;45.190;5.722;2023-01-08T12:41:44;13.30;62.20
32173;DHT22;18679;45.190;5.722;2023-01-08T12:44:46;13.30;62.20
32173;DHT22;18679;45.190;5.722;2023-01-08T12:48:03;13.40;62.40
32173;DHT22;18679;45.190;5.722;2023-01-08T12:51:12;13.50;62.30
32173;DHT22;18679;45.190;5.722;2023-01-08T13:03:53;13.80;61.90
32173;DHT22;18679;45.190;5.722;2023-01-08T13:07:02;13.80;61.80
32173;DHT22;18679;45.190;5.722;2023-01-08T13:10:07;13.80;61.90
32173;DHT22;18679;45.190;5.722;2023-01-08T13:16:28;13.80;61.80
32173;DHT22;18679;45.190;5.722;2023-01-08T13:19:38;13.80;61.80
32173;DHT22;18679;45.190;5.722;2023-01-08T13:22:40;13.80;61.80
32173;DHT22;18679;45.190;5.722;2023-01-08T13:25:50;13.80;61.80
32173;DHT22;18679;45.190;5.722;2023-01-08T13:28:51;13.80;61.80
32173;DHT22;18679;45.190;5.722;2023-01-08T13:31:52;13.90;61.80
32173;DHT22;18679;45.190;5.722;2023-01-08T13:38:19;14.20;61.60
32173;DHT22;18679;45.190;5.722;2023-01-08T13:45:00;14.20;61.30
32173;DHT22;18679;45.190;5.722;2023-01-08T13:48:03;14.30;61.20
32173;DHT22;18679;45.190;5.722;2023-01-08T13:51:04;14.30;61.00
32173;DHT22;18679;45.190;5.722;2023-01-08T13:54:16;14.40;60.90
32173;DHT22;18679;45.190;5.722;2023-01-08T13:57:18;14.40;60.50
32173;DHT22;18679;45.190;5.722;2023-01-08T14:00:28;14.50;60.50
32173;DHT22;18679;45.190;5.722;2023-01-08T14:03:35;14.50;60.40
32173;DHT22;18679;45.190;5.722;2023-01-08T14:06:39;14.40;60.20
32173;DHT22;18679;45.190;5.722;2023-01-08T14:09:40;14.40;60.40
32173;DHT22;18679;45.190;5.722;2023-01-08T14:12:41;14.40;60.50
32173;DHT22;18679;45.190;5.722;2023-01-08T14:15:43;14.40;60.70
32173;DHT22;18679;45.190;5.722;2023-01-08T14:18:44;14.30;60.90
32173;DHT22;18679;45.190;5.722;2023-01-08T14:21:56;14.20;61.20
32173;DHT22;18679;45.190;5.722;2023-01-08T14:25:03;14.10;61.50
32173;DHT22;18679;45.190;5.722;2023-01-08T14:28:05;14.10;61.60
32173;DHT22;18679;45.190;5.722;2023-01-08T14:31:19;14.10;61.80
32173;DHT22;18679;45.190;5.722;2023-01-08T14:34:22;14.10;61.80
32173;DHT22;18679;45.190;5.722;2023-01-08T14:37:24;14.00;61.80
32173;DHT22;18679;45.190;5.722;2023-01-08T14:40:37;14.00;62.10
32173;DHT22;18679;45.190;5.722;2023-01-08T14:43:43;14.00;62.50
32173;DHT22;18679;45.190;5.722;2023-01-08T14:46:44;13.90;62.60
32173;DHT22;18679;45.190;5.722;2023-01-08T14:49:50;13.90;62.80
32173;DHT22;18679;45.190;5.722;2023-01-08T14:52:56;13.90;62.80
32173;DHT22;18679;45.190;5.722;2023-01-08T14:55:58;13.90;62.80
32173;DHT22;18679;45.190;5.722;2023-01-08T14:59:06;13.90;62.90
32173;DHT22;18679;45.190;5.722;2023-01-08T15:02:20;13.80;63.10
32173;DHT22;18679;45.190;5.722;2023-01-08T15:05:27;13.80;63.30
32173;DHT22;18679;45.190;5.722;2023-01-08T15:08:43;13.70;63.40
32173;DHT22;18679;45.190;5.722;2023-01-08T15:14:54;13.70;64.20
32173;DHT22;18679;45.190;5.722;2023-01-08T15:17:55;13.60;64.30
32173;DHT22;18679;45.190;5.722;2023-01-08T15:20:58;13.60;64.40
32173;DHT22;18679;45.190;5.722;2023-01-08T15:23:59;13.70;64.40
32173;DHT22;18679;45.190;5.722;2023-01-08T15:27:02;13.70;64.30
32173;DHT22;18679;45.190;5.722;2023-01-08T15:30:35;13.70;64.20
32173;DHT22;18679;45.190;5.722;2023-01-08T15:33:36;13.60;64.30
32173;DHT22;18679;45.190;5.722;2023-01-08T15:36:37;13.60;64.30
32173;DHT22;18679;45.190;5.722;2023-01-08T15:39:38;13.50;64.40
32173;DHT22;18679;45.190;5.722;2023-01-08T15:42:39;13.50;64.60
32173;DHT22;18679;45.190;5.722;2023-01-08T15:45:58;13.50;64.80
32173;DHT22;18679;45.190;5.722;2023-01-08T15:48:59;13.40;64.80
32173;DHT22;18679;45.190;5.722;2023-01-08T15:52:00;13.40;64.80
32173;DHT22;18679;45.190;5.722;2023-01-08T15:55:01;13.40;64.80
32173;DHT22;18679;45.190;5.722;2023-01-08T15:58:02;13.40;65.00
32173;DHT22;18679;45.190;5.722;2023-01-08T16:01:04;13.40;65.10
32173;DHT22;18679;45.190;5.722;2023-01-08T16:04:05;13.30;65.40
32173;DHT22;18679;45.190;5.722;2023-01-08T16:07:05;13.30;65.70
32173;DHT22;18679;45.190;5.722;2023-01-08T16:10:07;13.30;65.80
32173;DHT22;18679;45.190;5.722;2023-01-08T16:13:08;13.20;65.90
32173;DHT22;18679;45.190;5.722;2023-01-08T16:16:11;13.20;65.90
32173;DHT22;18679;45.190;5.722;2023-01-08T16:19:12;13.30;65.90
32173;DHT22;18679;45.190;5.722;2023-01-08T16:22:13;13.20;65.80
32173;DHT22;18679;45.190;5.722;2023-01-08T16:25:14;13.20;65.80
32173;DHT22;18679;45.190;5.722;2023-01-08T16:28:15;13.20;65.80
32173;DHT22;18679;45.190;5.722;2023-01-08T16:31:17;13.20;65.70
32173;DHT22;18679;45.190;5.722;2023-01-08T16:34:18;13.20;65.70
32173;DHT22;18679;45.190;5.722;2023-01-08T16:37:20;13.20;65.80
32173;DHT22;18679;45.190;5.722;2023-01-08T16:40:21;13.20;65.70
32173;DHT22;18679;45.190;5.722;2023-01-08T16:43:27;13.20;65.70
32173;DHT22;18679;45.190;5.722;2023-01-08T16:46:28;13.20;65.60
32173;DHT22;18679;45.190;5.722;2023-01-08T16:49:29;13.20;65.60
32173;DHT22;18679;45.190;5.722;2023-01-08T16:52:32;13.20;65.70
32173;DHT22;18679;45.190;5.722;2023-01-08T16:55:38;13.30;65.70
32173;DHT22;18679;45.190;5.722;2023-01-08T16:58:40;13.30;65.70
32173;DHT22;18679;45.190;5.722;2023-01-08T17:01:41;13.30;65.60
32173;DHT22;18679;45.190;5.722;2023-01-08T17:04:42;13.40;65.70
32173;DHT22;18679;45.190;5.722;2023-01-08T17:07:42;13.40;65.80
32173;DHT22;18679;45.190;5.722;2023-01-08T17:10:43;13.30;65.80
32173;DHT22;18679;45.190;5.722;2023-01-08T17:13:45;13.30;65.90
32173;DHT22;18679;45.190;5.722;2023-01-08T17:16:46;13.30;66.00
32173;DHT22;18679;45.190;5.722;2023-01-08T17:19:48;13.30;66.00
32173;DHT22;18679;45.190;5.722;2023-01-08T17:22:49;13.30;65.90
32173;DHT22;18679;45.190;5.722;2023-01-08T17:25:50;13.30;65.90
32173;DHT22;18679;45.190;5.722;2023-01-08T17:28:53;13.30;65.70
32173;DHT22;18679;45.190;5.722;2023-01-08T17:31:54;13.40;65.70
32173;DHT22;18679;45.190;5.722;2023-01-08T17:34:55;13.40;65.60
32173;DHT22;18679;45.190;5.722;2023-01-08T17:37:56;13.40;65.50
32173;DHT22;18679;45.190;5.722;2023-01-08T17:40:59;13.50;65.50
32173;DHT22;18679;45.190;5.722;2023-01-08T17:44:01;13.50;65.40
32173;DHT22;18679;45.190;5.722;2023-01-08T17:47:02;13.50;65.30
32173;DHT22;18679;45.190;5.722;2023-01-08T17:50:04;13.50;65.20
32173;DHT22;18679;45.190;5.722;2023-01-08T17:53:05;13.50;65.20
32173;DHT22;18679;45.190;5.722;2023-01-08T17:56:06;13.60;65.10
32173;DHT22;18679;45.190;5.722;2023-01-08T17:59:12;13.60;65.10
32173;DHT22;18679;45.190;5.722;2023-01-08T18:02:15;13.70;65.10
32173;DHT22;18679;45.190;5.722;2023-01-08T18:05:16;13.70;65.00
32173;DHT22;18679;45.190;5.722;2023-01-08T18:08:17;13.70;64.90
32173;DHT22;18679;45.190;5.722;2023-01-08T18:11:18;13.70;64.80
32173;DHT22;18679;45.190;5.722;2023-01-08T18:14:18;13.60;64.70
32173;DHT22;18679;45.190;5.722;2023-01-08T18:17:20;13.70;64.60
32173;DHT22;18679;45.190;5.722;2023-01-08T18:20:21;13.70;64.40
32173;DHT22;18679;45.190;5.722;2023-01-08T18:23:22;13.60;64.30
32173;DHT22;18679;45.190;5.722;2023-01-08T18:26:23;13.60;64.50
32173;DHT22;18679;45.190;5.722;2023-01-08T18:29:24;13.50;64.50
32173;DHT22;18679;45.190;5.722;2023-01-08T18:32:25;13.50;64.70
32173;DHT22;18679;45.190;5.722;2023-01-08T18:35:26;13.50;64.80
32173;DHT22;18679;45.190;5.722;2023-01-08T18:38:28;13.50;64.80
32173;DHT22;18679;45.190;5.722;2023-01-08T18:41:29;13.50;64.90
32173;DHT22;18679;45.190;5.722;2023-01-08T18:44:49;13.40;64.70
32173;DHT22;18679;45.190;5.722;2023-01-08T18:47:52;13.40;65.00
32173;DHT22;18679;45.190;5.722;2023-01-08T18:50:53;13.30;65.00
32173;DHT22;18679;45.190;5.722;2023-01-08T18:53:55;13.40;65.10
32173;DHT22;18679;45.190;5.722;2023-01-08T18:56:55;13.30;65.20
32173;DHT22;18679;45.190;5.722;2023-01-08T18:59:56;13.30;65.30
32173;DHT22;18679;45.190;5.722;2023-01-08T19:02:57;13.30;65.40
32173;DHT22;18679;45.190;5.722;2023-01-08T19:05:58;13.40;65.40
32173;DHT22;18679;45.190;5.722;2023-01-08T19:08:59;13.40;65.50
32173;DHT22;18679;45.190;5.722;2023-01-08T19:12:00;13.40;65.50
32173;DHT22;18679;45.190;5.722;2023-01-08T19:15:01;13.40;65.50
32173;DHT22;18679;45.190;5.722;2023-01-08T19:18:04;13.50;65.50
32173;DHT22;18679;45.190;5.722;2023-01-08T19:21:06;13.50;65.40
32173;DHT22;18679;45.190;5.722;2023-01-08T19:24:08;13.50;65.30
32173;DHT22;18679;45.190;5.722;2023-01-08T19:27:09;13.60;65.20
32173;DHT22;18679;45.190;5.722;2023-01-08T19:30:10;13.60;65.10
32173;DHT22;18679;45.190;5.722;2023-01-08T19:33:11;13.60;65.20
32173;DHT22;18679;45.190;5.722;2023-01-08T19:36:12;13.60;65.20
32173;DHT22;18679;45.190;5.722;2023-01-08T19:39:15;13.60;65.30
32173;DHT22;18679;45.190;5.722;2023-01-08T19:42:16;13.60;65.40
32173;DHT22;18679;45.190;5.722;2023-01-08T19:45:36;13.60;65.60
32173;DHT22;18679;45.190;5.722;2023-01-08T19:48:37;13.50;65.60
32173;DHT22;18679;45.190;5.722;2023-01-08T19:51:39;13.60;65.70
32173;DHT22;18679;45.190;5.722;2023-01-08T19:54:40;13.60;65.70
32173;DHT22;18679;45.190;5.722;2023-01-08T19:57:41;13.60;65.60
32173;DHT22;18679;45.190;5.722;2023-01-08T20:00:42;13.60;65.50
32173;DHT22;18679;45.190;5.722;2023-01-08T20:03:44;13.70;65.50
32173;DHT22;18679;45.190;5.722;2023-01-08T20:06:45;13.70;65.40
32173;DHT22;18679;45.190;5.722;2023-01-08T20:09:46;13.70;65.30
32173;DHT22;18679;45.190;5.722;2023-01-08T20:12:47;13.70;65.20
32173;DHT22;18679;45.190;5.722;2023-01-08T20:15:57;13.80;65.20
32173;DHT22;18679;45.190;5.722;2023-01-08T20:18:59;13.80;65.10
32173;DHT22;18679;45.190;5.722;2023-01-08T20:22:04;13.80;65.20
32173;DHT22;18679;45.190;5.722;2023-01-08T20:25:05;13.80;65.20
32173;DHT22;18679;45.190;5.722;2023-01-08T20:28:06;13.80;65.30
32173;DHT22;18679;45.190;5.722;2023-01-08T20:31:10;13.80;65.30
32173;DHT22;18679;45.190;5.722;2023-01-08T20:34:13;13.80;65.20
32173;DHT22;18679;45.190;5.722;2023-01-08T20:37:15;13.80;65.30
32173;DHT22;18679;45.190;5.722;2023-01-08T20:40:16;13.80;65.30
32173;DHT22;18679;45.190;5.722;2023-01-08T20:43:17;13.80;65.30
32173;DHT22;18679;45.190;5.722;2023-01-08T20:46:18;13.80;65.30
32173;DHT22;18679;45.190;5.722;2023-01-08T20:49:19;13.70;65.20